createdAt,value
2023-05-05T00:01:11.583Z,101430.19
2023-05-05T00:03:38.098Z,101431.75
2023-05-05T00:06:05.524Z,101432.34
2023-05-05T00:08:32.111Z,101428.53
2023-05-05T00:10:58.663Z,101429.41
2023-05-05T00:13:25.297Z,101425.88
2023-05-05T00:15:53.547Z,101430.00
2023-05-05T00:18:20.983Z,101421.22
2023-05-05T00:20:48.125Z,101426.28
2023-05-05T00:23:15.991Z,101424.41
2023-05-05T00:25:42.550Z,101426.66
2023-05-05T00:28:09.037Z,101416.22
2023-05-05T00:30:37.218Z,101418.47
2023-05-05T00:33:03.860Z,101417.16
2023-05-05T00:35:30.528Z,101413.63
2023-05-05T00:37:57.037Z,101421.34
2023-05-05T00:40:25.042Z,101411.00
2023-05-05T00:42:52.157Z,101400.25
2023-05-05T00:45:20.287Z,101407.56
2023-05-05T00:47:51.139Z,101406.78
2023-05-05T00:50:26.358Z,101409.09
2023-05-05T00:52:54.520Z,101403.84
2023-05-05T00:55:21.583Z,101404.53
2023-05-05T00:57:49.480Z,101411.25
2023-05-05T01:00:16.716Z,101410.16
2023-05-05T01:02:44.039Z,101404.22
2023-05-05T01:05:11.474Z,101407.75
2023-05-05T01:07:43.696Z,101403.25
2023-05-05T01:10:23.741Z,101396.09
2023-05-05T01:12:53.131Z,101397.66
2023-05-05T01:15:33.404Z,101393.19
2023-05-05T01:18:24.223Z,101399.88
2023-05-05T01:20:57.591Z,101392.09
2023-05-05T01:23:43.145Z,101389.38
2023-05-05T01:26:24.429Z,101381.66
2023-05-05T01:29:07.715Z,101378.03
2023-05-05T01:31:43.859Z,101379.69
2023-05-05T01:34:16.109Z,101372.78
2023-05-05T01:36:49.365Z,101383.09
2023-05-05T01:39:18.361Z,101376.75
2023-05-05T01:41:51.016Z,101375.56
2023-05-05T01:44:19.834Z,101373.16
2023-05-05T01:46:48.752Z,101372.72
2023-05-05T01:49:16.281Z,101365.03
2023-05-05T01:51:45.774Z,101356.44
2023-05-05T01:54:15.105Z,101360.63
2023-05-05T01:56:43.246Z,101373.09
2023-05-05T01:59:10.395Z,101367.16
2023-05-05T02:01:41.300Z,101354.41
2023-05-05T02:04:09.760Z,101355.94
2023-05-05T02:06:39.194Z,101358.16
2023-05-05T02:09:08.276Z,101355.44
2023-05-05T02:11:34.836Z,101360.25
2023-05-05T02:14:02.257Z,101366.19
2023-05-05T02:16:31.039Z,101359.28
2023-05-05T02:19:01.156Z,101358.41
2023-05-05T02:21:28.515Z,101365.00
2023-05-05T02:23:55.601Z,101350.41
2023-05-05T02:26:24.113Z,101356.25
2023-05-05T02:29:03.886Z,101339.66
2023-05-05T02:31:33.048Z,101356.13
2023-05-05T02:34:01.954Z,101345.59
2023-05-05T02:36:32.485Z,101340.13
2023-05-05T02:39:07.194Z,101352.28
2023-05-05T02:41:38.070Z,101344.50
2023-05-05T02:44:06.631Z,101345.50
2023-05-05T02:46:33.614Z,101332.53
2023-05-05T02:49:00.219Z,101340.88
2023-05-05T02:51:27.597Z,101330.13
2023-05-05T02:53:54.418Z,101327.72
2023-05-05T02:56:48.881Z,101344.06
2023-05-05T02:59:19.414Z,101342.34
2023-05-05T03:02:08.070Z,101345.41
2023-05-05T03:04:46.959Z,101342.03
2023-05-05T03:07:21.907Z,101347.63
2023-05-05T03:10:09.201Z,101335.00
2023-05-05T03:13:01.577Z,101331.56
2023-05-05T03:15:34.200Z,101322.13
2023-05-05T03:18:03.070Z,101312.81
2023-05-05T03:20:30.398Z,101317.75
2023-05-05T03:22:57.146Z,101310.94
2023-05-05T03:25:41.448Z,101313.25
2023-05-05T03:28:07.912Z,101304.91
2023-05-05T03:30:34.676Z,101312.69
2023-05-05T03:33:01.404Z,101311.81
2023-05-05T03:35:28.280Z,101316.56
2023-05-05T03:37:55.676Z,101315.75
2023-05-05T03:40:36.358Z,101312.50
2023-05-05T03:43:09.864Z,101305.56
2023-05-05T03:45:36.368Z,101306.44
2023-05-05T03:48:03.059Z,101306.34
2023-05-05T03:50:29.583Z,101302.25
2023-05-05T03:52:56.127Z,101302.94
2023-05-05T03:55:22.700Z,101299.53
2023-05-05T03:57:49.185Z,101298.44
2023-05-05T04:00:16.910Z,101307.31
2023-05-05T04:02:43.535Z,101308.84
2023-05-05T04:05:10.205Z,101300.41
2023-05-05T04:07:36.683Z,101300.53
2023-05-05T04:10:03.741Z,101295.25
2023-05-05T04:12:30.295Z,101296.03
2023-05-05T04:14:56.877Z,101296.34
2023-05-05T04:17:23.364Z,101293.81
2023-05-05T04:19:49.820Z,101291.28
2023-05-05T04:22:16.647Z,101306.78
2023-05-05T04:24:43.127Z,101287.09
2023-05-05T04:27:09.674Z,101291.72
2023-05-05T04:29:36.149Z,101297.75
2023-05-05T04:32:02.636Z,101304.00
2023-05-05T04:34:30.453Z,101301.00
2023-05-05T04:36:57.113Z,101308.91
2023-05-05T04:39:23.574Z,101309.22
2023-05-05T04:41:50.061Z,101309.63
2023-05-05T04:44:17.240Z,101311.91
2023-05-05T04:46:44.798Z,101327.81
2023-05-05T04:49:11.435Z,101326.41
2023-05-05T04:51:41.454Z,101331.66
2023-05-05T04:54:08.321Z,101316.00
2023-05-05T04:56:34.797Z,101319.63
2023-05-05T04:59:01.298Z,101313.47
2023-05-05T05:01:27.837Z,101325.97
2023-05-05T05:03:54.400Z,101325.41
2023-05-05T05:06:21.022Z,101334.16
2023-05-05T05:08:47.560Z,101335.34
2023-05-05T05:11:14.087Z,101323.66
2023-05-05T05:13:41.536Z,101320.28
2023-05-05T05:16:08.142Z,101325.94
2023-05-05T05:18:34.649Z,101322.72
2023-05-05T05:21:01.363Z,101310.00
2023-05-05T05:23:27.844Z,101311.28
2023-05-05T05:25:54.529Z,101310.78
2023-05-05T05:28:21.041Z,101318.22
2023-05-05T05:30:47.712Z,101303.38
2023-05-05T05:33:14.510Z,101309.47
2023-05-05T05:35:41.276Z,101306.88
2023-05-05T05:38:07.943Z,101301.09
2023-05-05T05:40:34.437Z,101304.09
2023-05-05T05:43:01.052Z,101294.53
2023-05-05T05:45:27.555Z,101296.06
2023-05-05T05:47:54.184Z,101298.81
2023-05-05T05:50:21.405Z,101291.78
2023-05-05T05:52:47.921Z,101296.66
2023-05-05T05:55:14.393Z,101299.13
2023-05-05T05:57:40.867Z,101292.97
2023-05-05T06:00:08.126Z,101284.59
2023-05-05T06:02:34.919Z,101275.13
2023-05-05T06:05:01.476Z,101286.78
2023-05-05T06:07:28.033Z,101277.84
2023-05-05T06:09:54.529Z,101279.78
2023-05-05T06:12:21.065Z,101284.06
2023-05-05T06:14:47.545Z,101276.63
2023-05-05T06:17:14.007Z,101256.88
2023-05-05T06:19:41.012Z,101256.44
2023-05-05T06:22:07.483Z,101263.13
2023-05-05T06:24:34.014Z,101262.38
2023-05-05T06:27:00.719Z,101262.75
2023-05-05T06:29:28.022Z,101255.59
2023-05-05T06:31:55.066Z,101269.69
2023-05-05T06:34:21.585Z,101258.66
2023-05-05T06:36:48.204Z,101255.91
2023-05-05T06:39:15.902Z,101254.53
2023-05-05T06:41:42.779Z,101271.88
2023-05-05T06:44:10.540Z,101269.94
2023-05-05T06:46:37.179Z,101267.72
2023-05-05T06:49:03.763Z,101290.78
2023-05-05T06:51:31.237Z,101276.59
2023-05-05T06:53:57.751Z,101283.50
2023-05-05T06:56:24.220Z,101289.56
2023-05-05T06:58:50.704Z,101274.59
2023-05-05T07:01:17.259Z,101288.09
2023-05-05T07:03:44.715Z,101277.38
2023-05-05T07:06:11.277Z,101283.50
2023-05-05T07:08:37.767Z,101280.38
2023-05-05T07:11:04.299Z,101294.38
2023-05-05T07:13:30.800Z,101298.75
2023-05-05T07:15:57.412Z,101303.03
2023-05-05T07:18:23.926Z,101317.75
2023-05-05T07:20:50.413Z,101320.44
2023-05-05T07:23:17.061Z,101319.03
2023-05-05T07:25:43.907Z,101311.50
2023-05-05T07:28:10.878Z,101310.97
2023-05-05T07:30:37.344Z,101299.75
2023-05-05T07:33:03.984Z,101315.09
2023-05-05T07:35:30.915Z,101316.75
2023-05-05T07:37:57.797Z,101326.91
2023-05-05T07:40:24.633Z,101322.16
2023-05-05T07:42:51.747Z,101327.50
2023-05-05T07:45:18.615Z,101324.91
2023-05-05T07:47:45.432Z,101316.81
2023-05-05T07:50:12.286Z,101326.75
2023-05-05T07:55:08.761Z,101328.69
2023-05-05T07:57:35.468Z,101339.13
2023-05-05T08:00:02.350Z,101343.66
2023-05-05T08:02:29.170Z,101333.00
2023-05-05T08:04:55.904Z,101340.50
2023-05-05T08:07:22.941Z,101328.16
2023-05-05T08:09:49.614Z,101326.25
2023-05-05T08:12:18.965Z,101331.03
2023-05-05T08:14:45.724Z,101323.44
2023-05-05T08:17:12.190Z,101329.28
2023-05-05T08:19:38.796Z,101324.84
2023-05-05T08:22:05.278Z,101331.16
2023-05-05T08:24:31.736Z,101328.91
2023-05-05T08:26:58.323Z,101329.97
2023-05-05T08:29:24.816Z,101324.75
2023-05-05T08:31:51.694Z,101329.38
2023-05-05T08:34:18.285Z,101347.69
2023-05-05T08:36:44.788Z,101325.09
2023-05-05T08:39:11.531Z,101326.78
2023-05-05T08:41:38.009Z,101318.34
2023-05-05T08:44:04.548Z,101326.28
2023-05-05T08:46:31.401Z,101308.97
2023-05-05T08:48:58.759Z,101307.16
2023-05-05T08:51:28.428Z,101299.41
2023-05-05T08:53:57.869Z,101298.28
2023-05-05T08:56:38.804Z,101303.72
2023-05-05T08:59:05.371Z,101305.22
2023-05-05T09:01:33.140Z,101290.63
2023-05-05T09:03:59.997Z,101290.06
2023-05-05T09:06:27.414Z,101289.31
2023-05-05T09:08:54.095Z,101284.59
2023-05-05T09:11:21.569Z,101288.66
2023-05-05T09:13:48.344Z,101301.53
2023-05-05T09:16:14.947Z,101288.69
2023-05-05T09:18:42.601Z,101283.81
2023-05-05T09:21:24.585Z,101279.56
2023-05-05T09:24:08.594Z,101280.63
2023-05-05T09:26:37.929Z,101277.47
2023-05-05T09:29:05.804Z,101293.28
2023-05-05T09:31:33.975Z,101287.47
2023-05-05T09:34:00.916Z,101299.91
2023-05-05T09:36:43.305Z,101295.31
2023-05-05T09:39:10.094Z,101296.09
2023-05-05T09:41:37.904Z,101304.97
2023-05-05T09:44:04.574Z,101291.00
2023-05-05T09:46:31.331Z,101277.00
2023-05-05T09:49:12.326Z,101284.41
2023-05-05T09:51:39.059Z,101271.34
2023-05-05T09:54:05.542Z,101267.91
2023-05-05T09:56:41.182Z,101263.66
2023-05-05T09:59:08.909Z,101251.50
2023-05-05T10:01:35.448Z,101265.41
2023-05-05T10:04:02.200Z,101255.16
2023-05-05T10:06:44.218Z,101259.31
2023-05-05T10:09:11.000Z,101256.44
2023-05-05T10:11:40.418Z,101261.13
2023-05-05T10:14:07.840Z,101254.31
2023-05-05T10:16:36.009Z,101251.19
2023-05-05T10:19:04.168Z,101251.31
2023-05-05T10:21:37.432Z,101251.72
2023-05-05T10:24:11.682Z,101249.72
2023-05-05T10:26:41.460Z,101267.22
2023-05-05T10:29:23.300Z,101263.31
2023-05-05T10:31:52.544Z,101269.47
2023-05-05T10:34:40.645Z,101252.69
2023-05-05T10:37:07.578Z,101261.44
2023-05-05T10:39:37.742Z,101255.63
2023-05-05T10:42:04.763Z,101269.53
2023-05-05T10:44:34.785Z,101263.72
2023-05-05T10:47:01.976Z,101254.50
2023-05-05T10:49:54.925Z,101273.13
2023-05-05T10:52:30.398Z,101280.03
2023-05-05T10:55:12.842Z,101279.72
2023-05-05T10:57:44.261Z,101274.28
2023-05-05T11:00:36.832Z,101274.34
2023-05-05T11:03:18.513Z,101284.81
2023-05-05T11:06:03.810Z,101291.75
2023-05-05T11:08:32.581Z,101275.31
2023-05-05T11:10:59.821Z,101276.19
2023-05-05T11:13:27.129Z,101281.69
2023-05-05T11:15:55.975Z,101273.97
2023-05-05T11:18:36.141Z,101281.38
2023-05-05T11:21:15.655Z,101275.00
2023-05-05T11:23:47.030Z,101266.16
2023-05-05T11:26:15.261Z,101258.44
2023-05-05T11:28:56.679Z,101261.84
2023-05-05T11:31:23.248Z,101264.53
2023-05-05T11:33:49.865Z,101264.59
2023-05-05T11:36:18.411Z,101246.78
2023-05-05T11:39:09.120Z,101246.13
2023-05-05T11:42:25.513Z,101237.59
2023-05-05T11:44:52.789Z,101229.81
2023-05-05T11:47:19.190Z,101221.31
2023-05-05T11:49:45.806Z,101221.47
2023-05-05T11:52:14.571Z,101209.78
2023-05-05T11:54:50.021Z,101216.31
2023-05-05T11:57:21.048Z,101208.13
2023-05-05T11:59:55.198Z,101209.44
2023-05-05T12:02:22.767Z,101198.41
2023-05-05T12:04:49.767Z,101202.00
2023-05-05T12:07:17.822Z,101194.19
2023-05-05T12:09:45.950Z,101201.09
2023-05-05T12:12:13.801Z,101191.81
2023-05-05T12:14:54.762Z,101199.69
2023-05-05T12:17:25.659Z,101191.28
2023-05-05T12:19:57.604Z,101184.66
2023-05-05T12:22:25.681Z,101198.47
2023-05-05T12:24:57.234Z,101192.53
2023-05-05T12:27:24.687Z,101184.69
2023-05-05T12:29:51.905Z,101185.56
2023-05-05T12:32:21.031Z,101188.84
2023-05-05T12:34:48.511Z,101188.63
2023-05-05T12:37:16.811Z,101178.47
2023-05-05T12:39:43.281Z,101189.13
2023-05-05T12:42:09.869Z,101183.47
2023-05-05T12:44:40.084Z,101185.44
2023-05-05T12:47:07.078Z,101192.69
2023-05-05T12:49:50.087Z,101177.34
2023-05-05T12:52:16.910Z,101185.97
2023-05-05T12:54:57.061Z,101191.94
2023-05-05T12:57:23.961Z,101186.28
2023-05-05T12:59:51.629Z,101183.84
2023-05-05T13:02:18.953Z,101195.50
2023-05-05T13:04:53.338Z,101189.88
2023-05-05T13:07:21.771Z,101187.50
2023-05-05T13:09:49.798Z,101185.03
2023-05-05T13:12:21.065Z,101178.00
2023-05-05T13:14:48.478Z,101174.41
2023-05-05T13:17:15.234Z,101174.41
2023-05-05T13:19:42.692Z,101170.16
2023-05-05T13:22:13.001Z,101169.44
2023-05-05T13:24:50.928Z,101167.59
2023-05-05T13:27:19.030Z,101168.47
2023-05-05T13:29:45.892Z,101159.84
2023-05-05T13:32:12.513Z,101151.13
2023-05-05T13:34:39.266Z,101157.13
2023-05-05T13:37:06.153Z,101141.63
2023-05-05T13:39:32.680Z,101140.06
2023-05-05T13:41:59.215Z,101136.13
2023-05-05T13:44:25.739Z,101125.22
2023-05-05T13:46:52.453Z,101126.25
2023-05-05T13:49:20.024Z,101141.88
2023-05-05T13:51:46.909Z,101131.59
2023-05-05T13:54:13.826Z,101130.78
2023-05-05T13:56:40.660Z,101134.22
2023-05-05T13:59:07.300Z,101123.03
2023-05-05T14:01:33.873Z,101128.28
2023-05-05T14:04:03.672Z,101117.03
2023-05-05T14:06:32.567Z,101115.38
2023-05-05T14:08:59.195Z,101120.53
2023-05-05T14:11:25.692Z,101105.00
2023-05-05T14:13:52.699Z,101110.84
2023-05-05T14:16:19.226Z,101109.81
2023-05-05T14:18:45.767Z,101103.53
2023-05-05T14:21:12.263Z,101099.09
2023-05-05T14:23:38.779Z,101083.41
2023-05-05T14:26:05.360Z,101098.00
2023-05-05T14:28:31.908Z,101094.41
2023-05-05T14:30:58.433Z,101096.06
2023-05-05T14:33:24.983Z,101100.13
2023-05-05T14:35:51.976Z,101099.03
2023-05-05T14:38:18.478Z,101090.00
2023-05-05T14:40:45.006Z,101099.09
2023-05-05T14:43:11.501Z,101096.09
2023-05-05T14:45:38.073Z,101086.97
2023-05-05T14:48:04.613Z,101086.69
2023-05-05T14:50:31.220Z,101073.28
2023-05-05T14:52:57.754Z,101088.66
2023-05-05T14:55:24.973Z,101088.50
2023-05-05T14:57:51.887Z,101081.47
2023-05-05T15:00:18.730Z,101064.31
2023-05-05T15:02:45.400Z,101074.69
2023-05-05T15:05:12.313Z,101069.66
2023-05-05T15:07:39.975Z,101040.47
2023-05-05T15:10:07.559Z,101050.06
2023-05-05T15:12:34.295Z,101056.34
2023-05-05T15:15:00.851Z,101059.00
2023-05-05T15:17:27.461Z,101060.75
2023-05-05T15:19:54.148Z,101063.31
2023-05-05T15:22:20.913Z,101055.50
2023-05-05T15:24:47.608Z,101049.38
2023-05-05T15:27:14.385Z,101059.63
2023-05-05T15:29:41.028Z,101059.25
2023-05-05T15:32:07.793Z,101051.22
2023-05-05T15:34:34.328Z,101051.88
2023-05-05T15:37:01.061Z,101042.41
2023-05-05T15:39:27.570Z,101046.56
2023-05-05T15:41:54.091Z,101046.50
2023-05-05T15:44:20.648Z,101051.44
2023-05-05T15:46:49.737Z,101059.06
2023-05-05T15:49:16.921Z,101054.53
2023-05-05T15:51:43.558Z,101056.88
2023-05-05T15:54:11.044Z,101036.88
2023-05-05T15:56:37.678Z,101039.34
2023-05-05T15:59:04.196Z,101048.81
2023-05-05T16:01:30.818Z,101048.69
2023-05-05T16:03:57.821Z,101050.19
2023-05-05T16:06:24.412Z,101048.44
2023-05-05T16:08:51.771Z,101044.88
2023-05-05T16:11:19.964Z,101042.19
2023-05-05T16:13:47.644Z,101042.09
2023-05-05T16:16:14.207Z,101044.44
2023-05-05T16:18:40.772Z,101038.31
2023-05-05T16:21:07.232Z,101049.50
2023-05-05T16:23:33.734Z,101051.09
2023-05-05T16:26:00.210Z,101056.06
2023-05-05T16:28:26.959Z,101053.34
2023-05-05T16:30:53.433Z,101056.63
2023-05-05T16:33:19.900Z,101054.63
2023-05-05T16:35:46.442Z,101056.31
2023-05-05T16:38:13.411Z,101050.81
2023-05-05T16:40:40.244Z,101060.50
2023-05-05T16:43:06.778Z,101070.69
2023-05-05T16:45:33.264Z,101052.56
2023-05-05T16:47:59.832Z,101072.38
2023-05-05T16:50:26.757Z,101058.50
2023-05-05T16:52:53.241Z,101065.41
2023-05-05T16:55:19.853Z,101066.94
2023-05-05T16:57:47.785Z,101065.09
2023-05-05T17:00:14.622Z,101068.66
2023-05-05T17:02:41.174Z,101085.69
2023-05-05T17:05:08.172Z,101082.19
2023-05-05T17:07:35.074Z,101082.09
2023-05-05T17:10:01.639Z,101094.91
2023-05-05T17:12:28.342Z,101081.19
2023-05-05T17:14:54.886Z,101086.28
2023-05-05T17:17:21.421Z,101092.19
2023-05-05T17:19:47.902Z,101087.22
2023-05-05T17:22:14.394Z,101089.72
2023-05-05T17:24:40.955Z,101094.75
2023-05-05T17:27:07.498Z,101082.66
2023-05-05T17:29:40.176Z,101090.34
2023-05-05T17:32:07.768Z,101094.66
2023-05-05T17:34:34.645Z,101093.72
2023-05-05T17:37:01.858Z,101097.97
2023-05-05T17:39:28.859Z,101088.38
2023-05-05T17:41:55.671Z,101086.59
2023-05-05T17:44:22.242Z,101089.03
2023-05-05T17:46:48.885Z,101103.78
2023-05-05T17:49:16.237Z,101091.34
2023-05-05T17:51:42.685Z,101108.38
2023-05-05T17:54:09.336Z,101115.56
2023-05-05T17:56:36.713Z,101121.50
2023-05-05T17:59:03.261Z,101123.56
2023-05-05T18:01:29.857Z,101116.41
2023-05-05T18:03:57.445Z,101130.78
2023-05-05T18:06:23.996Z,101136.47
2023-05-05T18:08:50.482Z,101139.47
2023-05-05T18:11:17.126Z,101149.53
2023-05-05T18:13:43.622Z,101156.22
2023-05-05T18:16:10.282Z,101161.16
2023-05-05T18:18:36.900Z,101165.06
2023-05-05T18:21:03.479Z,101173.50
2023-05-05T18:23:29.996Z,101172.41
2023-05-05T18:25:56.536Z,101164.72
2023-05-05T18:28:23.178Z,101184.22
2023-05-05T18:30:49.691Z,101186.38
2023-05-05T18:33:16.195Z,101183.38
2023-05-05T18:35:42.704Z,101175.94
2023-05-05T18:38:09.220Z,101178.16
2023-05-05T18:40:35.710Z,101177.94
2023-05-05T18:43:02.279Z,101190.56
2023-05-05T18:45:28.848Z,101183.72
2023-05-05T18:47:56.313Z,101187.06
2023-05-05T18:50:23.088Z,101184.44
2023-05-05T18:52:49.557Z,101192.91
2023-05-05T18:55:16.058Z,101185.94
2023-05-05T18:57:42.665Z,101178.16
2023-05-05T19:00:10.085Z,101179.75
2023-05-05T19:02:36.890Z,101185.66
2023-05-05T19:05:03.770Z,101186.38
2023-05-05T19:07:35.315Z,101187.13
2023-05-05T19:10:04.479Z,101187.03
2023-05-05T19:12:31.054Z,101186.91
2023-05-05T19:14:57.861Z,101189.47
2023-05-05T19:17:25.435Z,101201.56
2023-05-05T19:19:52.175Z,101181.69
2023-05-05T19:22:20.478Z,101191.00
2023-05-05T19:24:47.052Z,101196.91
2023-05-05T19:27:16.415Z,101192.03
2023-05-05T19:29:43.566Z,101196.19
2023-05-05T19:32:10.149Z,101200.13
2023-05-05T19:34:36.903Z,101183.25
2023-05-05T19:37:03.414Z,101196.00
2023-05-05T19:39:30.029Z,101192.06
2023-05-05T19:41:56.718Z,101197.56
2023-05-05T19:44:23.756Z,101192.03
2023-05-05T19:46:51.760Z,101176.72
2023-05-05T19:49:18.465Z,101182.38
2023-05-05T19:51:47.474Z,101179.34
2023-05-05T19:54:14.175Z,101170.44
2023-05-05T19:56:40.872Z,101161.53
2023-05-05T19:59:07.519Z,101154.31
2023-05-05T20:01:34.931Z,101161.66
2023-05-05T20:04:03.121Z,101146.50
2023-05-05T20:06:29.803Z,101146.75
2023-05-05T20:08:56.502Z,101135.69
2023-05-05T20:11:23.258Z,101128.63
2023-05-05T20:13:50.728Z,101126.41
2023-05-05T20:16:17.852Z,101121.31
2023-05-05T20:18:44.585Z,101124.47
2023-05-05T20:21:11.510Z,101130.16
2023-05-05T20:23:38.228Z,101144.44
2023-05-05T20:26:05.007Z,101139.19
2023-05-05T20:28:31.828Z,101143.16
2023-05-05T20:31:00.397Z,101139.47
2023-05-05T20:33:28.680Z,101130.84
2023-05-05T20:35:55.432Z,101126.28
2023-05-05T20:38:22.109Z,101132.88
2023-05-05T20:40:49.972Z,101131.81
2023-05-05T20:43:16.644Z,101123.63
2023-05-05T20:45:43.415Z,101129.50
2023-05-05T20:48:11.314Z,101130.28
2023-05-05T20:50:38.669Z,101136.00
2023-05-05T20:53:07.917Z,101113.50
2023-05-05T20:55:34.888Z,101129.50
2023-05-05T20:58:01.675Z,101133.47
2023-05-05T21:00:28.364Z,101141.06
2023-05-05T21:02:56.775Z,101122.72
2023-05-05T21:05:24.145Z,101126.09
2023-05-05T21:07:53.598Z,101131.19
2023-05-05T21:10:20.397Z,101129.25
2023-05-05T21:12:47.156Z,101125.84
2023-05-05T21:15:13.889Z,101126.19
2023-05-05T21:17:40.773Z,101137.06
2023-05-05T21:20:08.613Z,101136.69
2023-05-05T21:22:35.502Z,101128.22
2023-05-05T21:25:12.303Z,101139.41
2023-05-05T21:27:39.052Z,101128.91
2023-05-05T21:30:08.625Z,101138.34
2023-05-05T21:32:39.105Z,101135.41
2023-05-05T21:35:07.824Z,101137.13
2023-05-05T21:37:36.281Z,101142.13
2023-05-05T21:40:03.079Z,101143.72
2023-05-05T21:42:30.926Z,101141.78
2023-05-05T21:44:57.641Z,101124.88
2023-05-05T21:47:24.354Z,101131.88
2023-05-05T21:49:51.014Z,101136.34
2023-05-05T21:52:17.712Z,101135.19
2023-05-05T21:54:44.681Z,101143.56
2023-05-05T21:57:11.375Z,101141.75
2023-05-05T21:59:38.053Z,101146.53
2023-05-05T22:02:04.738Z,101134.19
2023-05-05T22:04:31.407Z,101133.22
2023-05-05T22:06:58.217Z,101140.66
2023-05-05T22:09:24.911Z,101146.53
2023-05-05T22:11:51.643Z,101140.38
2023-05-05T22:14:18.525Z,101138.34
2023-05-05T22:16:45.413Z,101131.28
2023-05-05T22:19:12.136Z,101127.59
2023-05-05T22:21:39.014Z,101128.56
2023-05-05T22:24:07.072Z,101131.00
2023-05-05T22:26:34.055Z,101127.41
2023-05-05T22:29:00.950Z,101132.47
2023-05-05T22:31:29.236Z,101127.31
2023-05-05T22:33:56.048Z,101122.38
2023-05-05T22:36:22.905Z,101131.16
2023-05-05T22:38:49.795Z,101120.53
2023-05-05T22:41:16.473Z,101133.75
2023-05-05T22:43:43.161Z,101128.34
2023-05-05T22:46:10.150Z,101135.31
2023-05-05T22:48:36.871Z,101128.03
2023-05-05T22:51:03.691Z,101130.75
2023-05-05T22:53:30.718Z,101134.75
2023-05-05T22:55:58.443Z,101147.22
2023-05-05T22:58:25.653Z,101150.50
2023-05-05T23:00:52.209Z,101152.69
2023-05-05T23:03:18.725Z,101152.75
2023-05-05T23:05:45.225Z,101145.66
2023-05-05T23:08:11.689Z,101160.06
2023-05-05T23:10:38.180Z,101142.06
2023-05-05T23:13:04.727Z,101142.06
2023-05-05T23:15:31.400Z,101143.84
2023-05-05T23:17:57.941Z,101136.94
2023-05-05T23:20:24.430Z,101144.53
2023-05-05T23:22:50.883Z,101131.38
2023-05-05T23:25:17.560Z,101139.06
2023-05-05T23:27:44.102Z,101133.72
2023-05-05T23:30:11.094Z,101137.13
2023-05-05T23:32:37.817Z,101134.13
2023-05-05T23:35:04.809Z,101134.03
2023-05-05T23:37:31.467Z,101135.41
2023-05-05T23:39:58.105Z,101142.00
2023-05-05T23:42:24.623Z,101140.94
2023-05-05T23:44:51.207Z,101137.53
2023-05-05T23:47:17.840Z,101141.91
2023-05-05T23:49:44.514Z,101140.25
2023-05-05T23:52:11.192Z,101136.66
2023-05-05T23:54:37.659Z,101144.34
2023-05-05T23:57:04.188Z,101152.53
2023-05-05T23:59:30.691Z,101149.91
